Time;durP1;ratioP1;P1;durP2;ratioP2;P2;SDS_P1;SDS_P2;PMS_P1;PMS_P2;Temp;Humidity;BMP_temperature;BMP_pressure;BME280_temperature;BME280_humidity;BME280_pressure;Samples;Min_cycle;Max_cycle;Signal;HPM_P1;HPM_P2
2022/05/10 00:02:45;;;;;;;3.90;3.60;;;21.50;48.40;20.40;101618.00;;;;5036069;28;20036;-72
2022/05/10 00:05:38;;;;;;;5.97;3.75;;;21.50;48.40;20.40;101619.00;;;;5009128;28;20033;-72
2022/05/10 00:08:24;;;;;;;4.15;3.78;;;21.50;48.40;20.40;101612.00;;;;5021404;28;20044;-72
2022/05/10 00:11:10;;;;;;;5.43;3.90;;;21.50;48.30;20.40;101616.00;;;;5018646;28;20107;-72
2022/05/10 00:13:56;;;;;;;4.68;3.97;;;21.50;48.40;20.40;101620.00;;;;5039452;28;20044;-72
2022/05/10 00:16:43;;;;;;;4.55;3.92;;;21.50;48.30;20.40;101608.00;;;;5036974;28;20041;-72
2022/05/10 00:19:30;;;;;;;5.03;4.25;;;21.50;48.30;20.40;101604.00;;;;5026434;28;20451;-72
2022/05/10 00:22:16;;;;;;;4.47;3.65;;;21.50;48.30;20.40;101609.00;;;;5025220;28;20475;-72
2022/05/10 00:25:03;;;;;;;5.80;3.90;;;21.50;48.30;20.40;101606.00;;;;5028409;28;20045;-72
2022/05/10 00:27:49;;;;;;;3.88;3.33;;;21.50;48.30;20.40;101613.00;;;;5020765;28;20045;-72
2022/05/10 00:30:36;;;;;;;4.75;3.75;;;21.50;48.30;20.40;101597.00;;;;5022106;28;20494;-72
2022/05/10 00:33:27;;;;;;;3.83;3.53;;;21.50;48.30;20.40;101600.00;;;;5019223;28;20119;-71
2022/05/10 00:36:14;;;;;;;5.57;4.28;;;21.50;48.40;20.40;101603.00;;;;4994824;28;20053;-71
2022/05/10 00:39:00;;;;;;;4.28;3.88;;;21.50;48.30;20.40;101601.00;;;;5008441;28;20048;-72
2022/05/10 00:41:56;;;;;;;4.28;3.83;;;21.60;48.30;20.40;101599.00;;;;5021840;28;20427;-72
2022/05/10 00:44:49;;;;;;;4.35;3.65;;;21.50;48.40;20.40;101596.00;;;;5004927;28;20095;-71
2022/05/10 00:48:01;;;;;;;4.97;3.70;;;21.50;48.30;20.40;101589.00;;;;5011513;28;20383;-71
2022/05/10 00:51:02;;;;;;;4.07;3.75;;;21.50;48.30;20.40;101594.00;;;;5011187;28;20525;-71
2022/05/10 00:53:59;;;;;;;5.43;3.85;;;21.50;48.40;20.40;101586.00;;;;5005994;28;20045;-71
2022/05/10 00:57:09;;;;;;;4.18;3.60;;;21.50;48.30;20.40;101592.00;;;;5026243;28;20052;-71
2022/05/10 01:00:15;;;;;;;4.35;3.67;;;21.50;48.40;20.40;101581.00;;;;5024199;28;20121;-71
2022/05/10 01:03:13;;;;;;;5.80;3.83;;;21.50;48.40;20.40;101569.00;;;;5027626;28;20315;-71
2022/05/10 01:06:43;;;;;;;5.07;4.18;;;21.50;48.40;20.30;101570.00;;;;5021617;28;20079;-71
2022/05/10 01:09:42;;;;;;;5.03;3.53;;;21.50;48.40;20.30;101571.00;;;;4950275;28;20039;-71
2022/05/10 01:12:39;;;;;;;6.47;3.72;;;21.50;48.40;20.30;101566.00;;;;5033250;28;20056;-71
2022/05/10 01:15:25;;;;;;;4.10;3.65;;;21.50;48.40;20.30;101559.00;;;;5023939;28;20076;-71
2022/05/10 01:18:11;;;;;;;4.15;3.80;;;21.50;48.30;20.30;101555.00;;;;5009258;28;20502;-71
2022/05/10 01:21:36;;;;;;;7.95;4.03;;;21.50;48.30;20.40;101557.00;;;;5012067;28;20049;-71
2022/05/10 01:25:06;;;;;;;6.07;3.65;;;21.50;48.40;20.30;101543.00;;;;5029084;28;20080;-71
2022/05/10 01:28:16;;;;;;;4.50;4.05;;;21.50;48.30;20.30;101556.00;;;;5016520;28;20124;-71
2022/05/10 01:31:06;;;;;;;6.35;3.70;;;21.40;48.20;20.30;101553.00;;;;5010641;28;20048;-71
2022/05/10 01:34:00;;;;;;;4.38;3.63;;;21.40;48.20;20.30;101550.00;;;;5006908;28;20052;-71
2022/05/10 01:36:55;;;;;;;3.83;3.47;;;21.40;48.30;20.30;101543.00;;;;4993319;28;20403;-71
2022/05/10 01:39:47;;;;;;;4.45;3.75;;;21.40;48.30;20.30;101544.00;;;;5022680;28;20044;-71
2022/05/10 01:42:40;;;;;;;5.13;3.90;;;21.40;48.30;20.40;101539.00;;;;5009394;28;20110;-71
2022/05/10 01:45:32;;;;;;;5.15;4.15;;;21.40;48.30;20.40;101533.00;;;;5018072;28;20069;-72
2022/05/10 01:48:21;;;;;;;4.57;3.85;;;21.10;48.10;20.30;101534.00;;;;5034733;28;20029;-72
2022/05/10 01:51:15;;;;;;;5.47;3.83;;;21.50;49.10;20.30;101527.00;;;;5017623;28;20045;-71
2022/05/10 01:54:01;;;;;;;5.97;4.00;;;21.40;48.30;20.40;101530.00;;;;5021119;28;20076;-71
2022/05/10 01:56:47;;;;;;;4.55;3.78;;;21.40;48.20;20.30;101524.00;;;;5002567;28;20056;-72
2022/05/10 01:59:33;;;;;;;4.20;3.70;;;21.40;48.20;20.40;101533.00;;;;5033480;28;20038;-72
2022/05/10 02:02:22;;;;;;;4.80;3.85;;;21.40;48.20;20.40;101535.00;;;;5036735;28;20045;-72
2022/05/10 02:05:11;;;;;;;4.38;3.97;;;21.40;48.30;20.40;101532.00;;;;4995782;28;20041;-71
2022/05/10 02:08:05;;;;;;;4.57;4.07;;;21.40;48.30;20.40;101530.00;;;;5018157;28;20041;-72
2022/05/10 02:10:52;;;;;;;5.50;4.00;;;21.40;48.30;20.40;101528.00;;;;5021980;28;20064;-71
2022/05/10 02:13:42;;;;;;;4.63;3.80;;;21.40;48.90;20.40;101522.00;;;;5007283;28;20045;-71
2022/05/10 02:16:44;;;;;;;5.13;3.65;;;21.40;48.30;20.40;101524.00;;;;5022566;28;20294;-71
2022/05/10 02:19:57;;;;;;;4.88;3.55;;;21.40;48.30;20.40;101531.00;;;;5009048;28;20514;-71
2022/05/10 02:22:58;;;;;;;4.05;3.60;;;21.40;48.20;20.40;101533.00;;;;5020621;28;20033;-71
2022/05/10 02:25:52;;;;;;;4.18;3.30;;;21.40;48.20;20.40;101525.00;;;;4994023;28;20049;-72
2022/05/10 02:28:48;;;;;;;5.47;3.90;;;21.40;48.20;20.30;101526.00;;;;4999039;28;20047;-72
2022/05/10 02:34:54;;;;;;;4.18;3.33;;;21.40;48.30;20.30;101517.00;;;;5013547;28;20092;-71
2022/05/10 02:37:40;;;;;;;6.38;3.78;;;21.40;48.20;20.30;101525.00;;;;5017501;28;20044;-72
2022/05/10 02:40:26;;;;;;;5.10;3.78;;;21.40;48.60;20.30;101522.00;;;;5022022;28;20041;-71
2022/05/10 02:43:15;;;;;;;4.80;3.53;;;21.40;48.20;20.40;101517.00;;;;5013930;28;20045;-72
2022/05/10 02:46:02;;;;;;;6.57;4.63;;;21.40;48.30;20.40;101513.00;;;;4995273;28;20546;-72
2022/05/10 02:48:48;;;;;;;3.90;3.50;;;21.40;48.20;20.40;101511.00;;;;5039145;28;20045;-72
2022/05/10 02:51:34;;;;;;;4.20;3.80;;;21.40;48.20;20.40;101511.00;;;;5020321;28;20041;-71
2022/05/10 02:54:20;;;;;;;4.72;3.92;;;21.40;48.20;20.40;101509.00;;;;5023643;28;20047;-71
2022/05/10 02:57:07;;;;;;;4.15;3.65;;;21.50;48.30;20.40;101500.00;;;;5039621;28;20076;-71
2022/05/10 02:59:55;;;;;;;5.30;4.28;;;21.40;48.20;20.40;101505.00;;;;5013125;28;20049;-71
2022/05/10 03:02:44;;;;;;;5.85;3.90;;;21.30;48.20;20.40;101506.00;;;;5014190;28;20060;-71
2022/05/10 03:05:30;;;;;;;4.72;4.07;;;21.40;48.30;20.30;101501.00;;;;5026778;28;20033;-71
2022/05/10 03:08:16;;;;;;;4.43;3.58;;;21.40;48.30;20.40;101502.00;;;;5044694;28;20037;-71
2022/05/10 03:11:02;;;;;;;5.93;4.00;;;21.40;48.20;20.40;101503.00;;;;5039093;28;20131;-71
2022/05/10 03:13:49;;;;;;;4.72;3.83;;;21.40;48.20;20.40;101505.00;;;;5036061;28;20120;-71
2022/05/10 03:16:35;;;;;;;6.63;3.97;;;21.40;48.30;20.40;101499.00;;;;5036586;28;20048;-71
2022/05/10 03:19:21;;;;;;;3.42;3.13;;;21.40;48.30;20.40;101494.00;;;;5025769;28;20046;-71
2022/05/10 03:22:09;;;;;;;4.93;4.18;;;21.40;48.30;20.40;101486.00;;;;5038297;28;20244;-71
2022/05/10 03:24:55;;;;;;;4.25;3.80;;;21.40;48.30;20.40;101494.00;;;;5035471;28;20513;-71
2022/05/10 03:27:41;;;;;;;6.65;4.10;;;21.40;48.30;20.40;101492.00;;;;5035160;28;20033;-72
2022/05/10 03:30:28;;;;;;;5.28;3.70;;;21.40;48.30;20.40;101486.00;;;;5041205;28;20037;-71
2022/05/10 03:33:14;;;;;;;5.05;4.15;;;21.40;48.30;20.30;101488.00;;;;5033953;28;20045;-72
2022/05/10 03:36:00;;;;;;;4.43;3.85;;;21.40;48.40;20.40;101490.00;;;;5034163;28;20045;-72
2022/05/10 03:38:46;;;;;;;4.07;3.67;;;21.40;48.30;20.40;101487.00;;;;5039707;28;20037;-71
2022/05/10 03:41:32;;;;;;;4.78;4.25;;;21.40;48.40;20.30;101482.00;;;;5040555;28;20037;-72
2022/05/10 03:44:18;;;;;;;9.57;3.65;;;21.40;48.40;20.30;101482.00;;;;5038081;28;20514;-71
2022/05/10 03:47:05;;;;;;;5.10;4.07;;;21.40;48.40;20.30;101474.00;;;;5032369;28;20046;-72
2022/05/10 03:49:52;;;;;;;5.97;4.63;;;21.40;48.40;20.30;101483.00;;;;5026447;28;20045;-72
2022/05/10 03:52:40;;;;;;;5.13;3.83;;;21.30;48.40;20.30;101472.00;;;;5038244;28;20138;-72
2022/05/10 03:55:27;;;;;;;4.22;3.75;;;21.40;48.40;20.30;101469.00;;;;5027550;28;20120;-71
2022/05/10 03:58:13;;;;;;;4.65;3.85;;;21.40;48.40;20.30;101473.00;;;;5039643;28;20075;-72
2022/05/10 04:00:59;;;;;;;4.40;4.00;;;21.40;48.40;20.30;101472.00;;;;5040576;28;20037;-71
2022/05/10 04:03:45;;;;;;;4.90;4.40;;;21.30;48.40;20.30;101473.00;;;;5035395;28;20406;-72
2022/05/10 04:06:31;;;;;;;5.18;4.38;;;21.30;48.40;20.30;101469.00;;;;5024311;28;20036;-72
2022/05/10 04:09:18;;;;;;;4.68;4.18;;;21.30;48.40;20.30;101463.00;;;;5028596;28;20515;-72
2022/05/10 04:12:04;;;;;;;5.70;3.88;;;21.30;48.40;20.30;101463.00;;;;5036257;28;20048;-72
2022/05/10 04:14:50;;;;;;;4.97;4.30;;;21.30;48.40;20.30;101460.00;;;;5036677;28;20478;-72
2022/05/10 04:17:36;;;;;;;5.20;3.97;;;21.40;48.50;20.30;101463.00;;;;5035185;28;20052;-72
2022/05/10 04:20:22;;;;;;;6.93;4.07;;;21.30;48.40;20.30;101464.00;;;;5024179;28;20526;-72
2022/05/10 04:23:09;;;;;;;5.97;4.60;;;21.30;48.50;20.30;101459.00;;;;5035412;28;20045;-71
2022/05/10 04:25:55;;;;;;;4.97;4.43;;;21.30;48.50;20.30;101462.00;;;;5038000;28;20048;-72
2022/05/10 04:28:41;;;;;;;4.93;4.43;;;21.30;48.50;20.30;101449.00;;;;5019301;28;20536;-71
2022/05/10 04:31:27;;;;;;;5.80;3.95;;;21.40;48.60;20.30;101458.00;;;;5021722;28;20045;-72
2022/05/10 04:34:13;;;;;;;7.03;4.43;;;21.30;48.50;20.30;101462.00;;;;5027972;28;20494;-72
2022/05/10 04:36:59;;;;;;;5.53;4.32;;;21.40;48.60;20.30;101463.00;;;;5026060;28;20040;-71
2022/05/10 04:42:51;;;;;;;5.15;4.40;;;21.30;48.50;20.30;101468.00;;;;5036246;28;20049;-72
2022/05/10 04:45:38;;;;;;;4.73;4.33;;;21.30;48.50;20.30;101466.00;;;;5005600;28;20030;-72
2022/05/10 04:48:24;;;;;;;6.32;4.53;;;21.30;48.50;20.30;101465.00;;;;5023521;28;20287;-72
2022/05/10 04:51:10;;;;;;;4.55;4.13;;;21.30;48.50;20.30;101468.00;;;;5034945;28;20029;-72
2022/05/10 04:53:57;;;;;;;5.78;4.13;;;21.30;48.50;20.30;101466.00;;;;5039523;28;20045;-72
2022/05/10 04:56:43;;;;;;;6.35;4.38;;;21.30;48.50;20.30;101464.00;;;;5020282;28;20045;-71
2022/05/10 04:59:29;;;;;;;5.97;4.68;;;21.30;48.60;20.30;101466.00;;;;5038423;28;20096;-72
2022/05/10 05:02:15;;;;;;;5.03;4.07;;;21.30;48.60;20.30;101471.00;;;;5036038;28;20048;-71
2022/05/10 05:05:02;;;;;;;5.00;4.03;;;21.30;48.60;20.30;101466.00;;;;5035413;28;20052;-72
2022/05/10 05:07:48;;;;;;;4.90;4.32;;;21.30;48.60;20.30;101473.00;;;;5021769;28;20041;-71
2022/05/10 05:10:36;;;;;;;6.65;4.40;;;21.30;48.60;20.30;101470.00;;;;5031779;28;20470;-71
2022/05/10 05:13:25;;;;;;;4.75;4.18;;;21.30;48.60;20.30;101477.00;;;;5022588;28;20041;-71
2022/05/10 05:16:11;;;;;;;5.65;4.53;;;21.30;48.60;20.30;101475.00;;;;5023003;28;20032;-71
2022/05/10 05:18:57;;;;;;;6.18;4.60;;;21.30;48.60;20.30;101477.00;;;;5026015;28;20048;-71
2022/05/10 05:21:43;;;;;;;5.63;4.25;;;21.30;48.60;20.30;101476.00;;;;5032849;28;20037;-72
2022/05/10 05:24:29;;;;;;;7.78;4.38;;;21.30;48.70;20.30;101478.00;;;;5033296;28;20411;-71
2022/05/10 05:27:15;;;;;;;6.68;4.68;;;21.30;48.60;20.30;101475.00;;;;5033712;28;20049;-71
2022/05/10 05:30:01;;;;;;;6.35;4.68;;;21.30;48.70;20.30;101483.00;;;;5031731;28;20052;-71
2022/05/10 05:32:47;;;;;;;5.93;4.40;;;21.30;48.70;20.30;101479.00;;;;5016742;28;20094;-71
2022/05/10 05:35:34;;;;;;;6.32;4.72;;;21.30;48.70;20.30;101479.00;;;;5033253;28;20064;-72
2022/05/10 05:38:20;;;;;;;4.97;4.18;;;21.30;48.70;20.30;101473.00;;;;5019768;28;20631;-72
2022/05/10 05:41:06;;;;;;;4.75;4.22;;;21.30;48.70;20.30;101478.00;;;;5016997;28;20045;-72
2022/05/10 05:43:52;;;;;;;5.05;4.45;;;21.30;48.70;20.30;101483.00;;;;5021198;28;20088;-72
2022/05/10 05:46:38;;;;;;;4.68;4.18;;;21.30;48.70;20.30;101479.00;;;;5034438;28;20502;-72
2022/05/10 05:49:28;;;;;;;5.68;4.70;;;21.30;48.70;20.30;101478.00;;;;5032323;28;20045;-72
2022/05/10 05:52:17;;;;;;;5.30;4.47;;;21.30;48.70;20.30;101475.00;;;;5032341;28;20033;-72
2022/05/10 05:55:04;;;;;;;4.97;4.45;;;21.30;48.70;20.30;101470.00;;;;5038960;28;20036;-72
2022/05/10 05:57:50;;;;;;;5.05;4.22;;;21.30;48.60;20.30;101475.00;;;;5034014;28;20403;-72
2022/05/10 06:00:38;;;;;;;5.47;4.47;;;21.30;48.60;20.30;101474.00;;;;5035131;28;20104;-72
2022/05/10 06:03:24;;;;;;;5.80;4.50;;;21.40;48.60;20.30;101470.00;;;;5019394;28;20135;-72
2022/05/10 06:06:11;;;;;;;5.35;4.55;;;21.30;48.60;20.30;101465.00;;;;5024287;28;20041;-72
2022/05/10 06:08:57;;;;;;;6.43;3.90;;;21.30;48.60;20.30;101463.00;;;;5021149;28;20069;-72
2022/05/10 06:11:44;;;;;;;4.82;4.32;;;21.40;48.60;20.30;101460.00;;;;5028394;28;20903;-72
2022/05/10 06:14:30;;;;;;;5.57;4.20;;;21.30;48.50;20.30;101464.00;;;;5035922;28;20055;-72
2022/05/10 06:17:16;;;;;;;4.55;4.03;;;21.40;48.50;20.30;101462.00;;;;5038236;28;20388;-72
2022/05/10 06:20:06;;;;;;;4.20;3.65;;;21.30;48.50;20.30;101447.00;;;;5009976;28;20094;-72
2022/05/10 06:22:53;;;;;;;4.95;4.18;;;21.30;48.40;20.30;101437.00;;;;5030791;28;20049;-72
2022/05/10 06:25:39;;;;;;;5.65;4.32;;;21.40;48.50;20.30;101447.00;;;;5040180;28;20041;-72
2022/05/10 06:28:25;;;;;;;5.00;3.75;;;21.40;48.50;20.30;101445.00;;;;5026310;28;20422;-71
2022/05/10 06:31:11;;;;;;;4.13;3.78;;;21.30;48.40;20.30;101451.00;;;;5034988;28;20179;-72
2022/05/10 06:33:57;;;;;;;4.93;4.18;;;21.40;48.50;20.30;101451.00;;;;5040682;28;20391;-72
2022/05/10 06:36:43;;;;;;;4.97;4.47;;;21.40;48.50;20.30;101457.00;;;;5020533;28;20195;-72
2022/05/10 06:39:29;;;;;;;5.32;4.82;;;21.50;48.60;20.30;101444.00;;;;5031926;28;20047;-72
2022/05/10 06:42:22;;;;;;;5.45;4.13;;;21.40;48.50;20.30;101439.00;;;;5034996;28;20119;-72
2022/05/10 06:45:11;;;;;;;4.97;3.83;;;21.40;48.50;20.30;101437.00;;;;5034146;28;20052;-72
2022/05/10 06:47:57;;;;;;;6.40;5.18;;;21.40;48.50;20.30;101431.00;;;;5034643;28;20596;-72
2022/05/10 06:50:44;;;;;;;4.60;4.20;;;21.40;48.50;20.30;101430.00;;;;5034941;28;20041;-72
2022/05/10 06:53:30;;;;;;;6.32;4.78;;;21.40;48.60;20.30;101427.00;;;;5040212;28;20268;-71
2022/05/10 06:56:36;;;;;;;7.55;4.82;;;21.40;49.30;20.30;101431.00;;;;5037019;28;20037;-71
2022/05/10 06:59:22;;;;;;;6.00;4.97;;;21.50;48.70;20.30;101423.00;;;;5035095;28;20056;-72
2022/05/10 07:02:08;;;;;;;6.38;4.90;;;21.40;48.70;20.30;101423.00;;;;5041486;28;20042;-72
2022/05/10 07:04:55;;;;;;;8.15;4.80;;;21.40;48.80;20.30;101422.00;;;;5040616;28;20433;-72
2022/05/10 07:07:41;;;;;;;7.18;4.85;;;21.40;48.80;20.30;101415.00;;;;5036337;28;20046;-71
2022/05/10 07:10:27;;;;;;;5.30;4.80;;;21.40;48.80;20.30;101411.00;;;;5045180;28;20045;-71
2022/05/10 07:13:24;;;;;;;6.03;4.57;;;21.50;49.00;20.30;101419.00;;;;5020537;28;20042;-71
2022/05/10 07:16:10;;;;;;;5.20;4.70;;;21.40;48.90;20.30;101408.00;;;;5022195;28;20435;-71
2022/05/10 07:18:57;;;;;;;6.05;4.50;;;21.50;48.90;20.30;101411.00;;;;5038265;28;20493;-72
2022/05/10 07:21:43;;;;;;;6.63;5.20;;;21.50;48.90;20.30;101415.00;;;;5006818;28;20049;-72
2022/05/10 07:24:29;;;;;;;6.97;5.38;;;21.40;48.80;20.30;101415.00;;;;5041929;28;20032;-72
2022/05/10 07:27:15;;;;;;;6.80;4.72;;;21.50;49.00;20.30;101410.00;;;;5035419;28;20037;-72
2022/05/10 07:30:02;;;;;;;6.82;5.50;;;21.50;49.00;20.30;101406.00;;;;5015427;28;20092;-71
2022/05/10 07:32:48;;;;;;;5.22;4.60;;;21.50;49.10;20.30;101407.00;;;;5053156;28;20036;-72
2022/05/10 07:38:39;;;;;;;7.70;6.05;;;21.50;49.50;20.30;101401.00;;;;5046046;28;20474;-72
2022/05/10 07:41:25;;;;;;;7.78;6.03;;;21.50;49.30;20.30;101414.00;;;;5038332;28;20052;-72
2022/05/10 07:44:11;;;;;;;5.93;5.32;;;21.50;49.30;20.30;101399.00;;;;5045127;28;20053;-72
2022/05/10 07:46:57;;;;;;;8.27;6.63;;;21.50;49.40;20.30;101405.00;;;;5039826;28;20041;-72
2022/05/10 07:49:44;;;;;;;8.68;5.90;;;21.50;49.50;20.30;101398.00;;;;5038926;28;20073;-72
2022/05/10 07:52:30;;;;;;;12.75;6.45;;;21.50;49.50;20.30;101392.00;;;;5023617;28;20482;-72
2022/05/10 07:55:16;;;;;;;6.68;5.97;;;21.50;49.60;20.30;101384.00;;;;5039432;28;20041;-72
2022/05/10 07:58:06;;;;;;;8.00;6.53;;;21.60;49.70;20.30;101379.00;;;;5040604;28;20045;-72
2022/05/10 08:00:52;;;;;;;6.65;6.00;;;21.50;49.80;20.30;101385.00;;;;5039110;28;20102;-72
2022/05/10 08:03:39;;;;;;;8.18;6.63;;;21.50;49.80;20.30;101384.00;;;;5036423;28;20056;-72
2022/05/10 08:06:26;;;;;;;8.27;6.85;;;21.50;49.70;20.30;101387.00;;;;5040449;28;20069;-72
2022/05/10 08:09:14;;;;;;;9.15;6.82;;;21.50;49.90;20.30;101380.00;;;;5039302;28;20131;-72
2022/05/10 08:12:00;;;;;;;7.88;6.78;;;21.50;49.80;20.30;101380.00;;;;5041254;28;20118;-72
2022/05/10 08:14:46;;;;;;;7.50;6.80;;;21.50;49.90;20.30;101377.00;;;;5040391;28;20033;-72
2022/05/10 08:17:32;;;;;;;10.57;7.07;;;21.50;49.90;20.30;101370.00;;;;5027725;28;20130;-72
2022/05/10 08:20:19;;;;;;;8.25;6.32;;;21.50;50.00;20.40;101370.00;;;;5033528;28;20394;-72
2022/05/10 08:23:08;;;;;;;7.10;6.22;;;21.50;50.00;20.30;101366.00;;;;5018502;28;20077;-72
2022/05/10 08:25:57;;;;;;;9.45;6.82;;;21.50;50.00;20.30;101368.00;;;;5012653;28;20048;-72
2022/05/10 08:28:43;;;;;;;9.38;7.70;;;21.50;50.20;20.30;101359.00;;;;5021775;28;20041;-72
2022/05/10 08:31:29;;;;;;;10.20;7.15;;;21.60;50.30;20.40;101357.00;;;;5035999;28;20037;-72
2022/05/10 08:34:15;;;;;;;7.93;6.80;;;21.50;50.30;20.30;101362.00;;;;5039982;28;20053;-72
2022/05/10 08:37:04;;;;;;;10.00;7.60;;;21.50;50.40;20.30;101364.00;;;;5033844;28;20060;-72
2022/05/10 08:39:50;;;;;;;9.75;6.55;;;21.60;50.60;20.30;101355.00;;;;5035318;28;20176;-72
2022/05/10 08:42:47;;;;;;;8.60;6.55;;;21.50;50.50;20.40;101361.00;;;;5037446;28;20060;-72
2022/05/10 08:45:38;;;;;;;8.93;6.47;;;21.50;50.60;20.30;101352.00;;;;5006647;28;20410;-71
2022/05/10 08:48:26;;;;;;;10.57;6.45;;;21.60;50.60;20.40;101347.00;;;;5013104;28;20029;-72
2022/05/10 08:51:12;;;;;;;;;;;21.60;50.60;20.40;101343.00;;;;5009674;28;20130;-72
2022/05/10 08:53:58;;;;;;;8.18;5.80;;;21.60;50.20;20.40;101341.00;;;;5035857;28;20378;-72
2022/05/10 08:56:55;;;;;;;7.18;6.25;;;21.60;50.40;20.40;101334.00;;;;5037515;28;20064;-72
2022/05/10 09:00:09;;;;;;;7.38;6.03;;;21.60;50.50;20.40;101338.00;;;;5012835;28;20051;-72
2022/05/10 09:02:56;;;;;;;9.35;6.60;;;21.50;50.40;20.40;101337.00;;;;5044615;28;20083;-72
2022/05/10 09:05:43;;;;;;;8.30;6.50;;;21.60;50.60;20.40;101320.00;;;;5034121;28;20123;-72
2022/05/10 09:08:37;;;;;;;10.02;6.63;;;21.60;50.70;20.40;101333.00;;;;5009264;28;20445;-72
2022/05/10 09:11:23;;;;;;;8.02;5.25;;;21.60;50.70;20.40;101322.00;;;;5018825;28;20095;-72
2022/05/10 09:14:09;;;;;;;6.90;6.22;;;21.60;50.70;20.40;101320.00;;;;4996844;28;20473;-72
2022/05/10 09:16:55;;;;;;;6.43;5.30;;;21.60;50.80;20.40;101313.00;;;;5010135;28;20045;-72
2022/05/10 09:19:42;;;;;;;6.82;6.07;;;21.60;50.80;20.40;101313.00;;;;5025436;28;20483;-72
2022/05/10 09:22:38;;;;;;;6.70;5.13;;;21.60;50.90;20.50;101311.00;;;;5034555;28;20099;-72
2022/05/10 09:25:36;;;;;;;8.70;5.18;;;21.60;51.10;20.50;101313.00;;;;5019894;28;20056;-72
2022/05/10 09:28:44;;;;;;;7.05;5.13;;;21.70;51.80;20.50;101313.00;;;;5039372;28;20056;-72
2022/05/10 09:34:48;;;;;;;5.57;4.97;;;21.70;50.80;20.50;101303.00;;;;5020658;28;20056;-72
2022/05/10 09:37:48;;;;;;;6.25;4.88;;;21.70;50.70;20.50;101290.00;;;;5011326;28;20079;-72
2022/05/10 09:40:47;;;;;;;5.25;4.65;;;21.70;50.80;20.50;101297.00;;;;5016741;28;20052;-72
2022/05/10 09:43:33;;;;;;;5.07;4.53;;;21.80;50.90;20.50;101287.00;;;;5037258;28;20076;-72
2022/05/10 09:46:25;;;;;;;7.18;4.93;;;21.80;50.70;20.60;101281.00;;;;5024810;28;20068;-72
2022/05/10 09:49:36;;;;;;;5.05;4.00;;;21.80;50.80;20.60;101287.00;;;;5030463;28;20479;-72
2022/05/10 09:52:26;;;;;;;6.53;4.22;;;21.80;50.70;20.60;101284.00;;;;5022551;28;20068;-72
2022/05/10 09:55:39;;;;;;;7.03;4.90;;;21.80;50.60;20.60;101261.00;;;;5034289;28;20111;-72
2022/05/10 09:58:34;;;;;;;6.63;4.70;;;21.80;50.50;20.60;101272.00;;;;5019514;28;20558;-72
2022/05/10 10:01:46;;;;;;;7.32;5.13;;;21.90;50.50;20.70;101270.00;;;;5014945;28;20045;-72
2022/05/10 10:04:37;;;;;;;5.85;4.78;;;21.90;50.60;20.70;101271.00;;;;5025221;28;20037;-72
2022/05/10 10:07:28;;;;;;;6.35;4.90;;;21.90;50.50;20.70;101262.00;;;;5006097;28;20037;-72
2022/05/10 10:10:17;;;;;;;7.75;4.85;;;21.90;51.20;20.70;101261.00;;;;5036635;28;20392;-72
2022/05/10 10:13:37;;;;;;;5.75;4.65;;;22.00;50.40;20.70;101265.00;;;;5036461;28;20041;-72
2022/05/10 10:16:28;;;;;;;;;;;22.00;50.50;20.70;101259.00;;;;5024583;28;20049;-72
2022/05/10 10:19:20;;;;;;;5.93;4.50;;;22.00;50.20;20.70;101253.00;;;;5047587;28;20072;-72
2022/05/10 10:22:20;;;;;;;10.75;5.38;;;22.00;50.20;20.80;101256.00;;;;5034103;28;20103;-72
2022/05/10 10:25:18;;;;;;;7.70;4.47;;;22.00;50.10;20.80;101249.00;;;;5025209;28;20037;-72
2022/05/10 10:28:25;;;;;;;5.38;4.53;;;22.10;50.20;20.80;101239.00;;;;5018906;28;20621;-73
2022/05/10 10:31:26;;;;;;;5.90;4.32;;;22.10;50.20;20.80;101241.00;;;;5012511;28;20072;-72
2022/05/10 10:34:36;;;;;;;8.00;4.80;;;22.10;50.00;20.80;101249.00;;;;5009103;28;20463;-72
2022/05/10 10:37:57;;;;;;;5.35;3.95;;;22.10;49.80;20.80;101242.00;;;;5023455;28;20076;-72
2022/05/10 10:40:48;;;;;;;7.63;4.30;;;22.10;49.70;20.80;101242.00;;;;5015854;28;20413;-72
2022/05/10 10:43:50;;;;;;;7.63;4.38;;;22.10;49.50;20.90;101233.00;;;;5011913;28;20040;-72
2022/05/10 10:46:43;;;;;;;4.43;3.90;;;22.10;49.40;20.90;101232.00;;;;5023502;28;20343;-72
2022/05/10 10:49:41;;;;;;;5.50;4.00;;;22.10;49.40;20.90;101240.00;;;;5020772;28;20056;-71
2022/05/10 10:52:29;;;;;;;6.25;4.22;;;22.20;49.40;20.90;101243.00;;;;5025408;28;20471;-71
2022/05/10 10:55:19;;;;;;;5.63;4.00;;;22.20;49.20;20.90;101231.00;;;;5038185;28;20419;-72
2022/05/10 10:58:34;;;;;;;4.30;3.85;;;22.20;49.00;20.90;101218.00;;;;5034552;28;20454;-72
2022/05/10 11:01:51;;;;;;;4.38;3.97;;;22.20;48.80;20.90;101228.00;;;;5017369;28;20209;-72
2022/05/10 11:05:01;;;;;;;7.28;4.65;;;22.20;48.60;20.90;101215.00;;;;5012254;28;20072;-71
2022/05/10 11:08:02;;;;;;;4.47;4.07;;;22.20;48.50;20.90;101199.00;;;;5039871;28;20060;-71
2022/05/10 11:11:05;;;;;;;4.75;3.67;;;22.20;48.40;20.90;101189.00;;;;5009208;28;20071;-71
2022/05/10 11:14:04;;;;;;;6.60;3.85;;;22.20;48.40;20.90;101188.00;;;;5039912;28;20111;-71
2022/05/10 11:17:11;;;;;;;4.90;4.03;;;22.20;48.40;20.90;101187.00;;;;5037418;28;20045;-71
2022/05/10 11:20:18;;;;;;;6.32;3.88;;;22.20;48.40;20.90;101180.00;;;;5016989;28;20475;-72
2022/05/10 11:23:08;;;;;;;6.90;3.90;;;22.20;48.40;20.90;101179.00;;;;5023833;28;20083;-71
2022/05/10 11:26:18;;;;;;;6.32;4.30;;;22.20;48.40;20.90;101183.00;;;;5030117;28;20033;-72
2022/05/10 11:29:59;;;;;;;5.90;3.95;;;22.20;48.40;20.90;101178.00;;;;5018881;28;20043;-71
2022/05/10 11:32:51;;;;;;;5.90;3.90;;;22.20;48.40;20.90;101177.00;;;;5014729;28;20469;-71
2022/05/10 11:35:57;;;;;;;5.97;4.20;;;22.30;48.30;20.90;101173.00;;;;5034202;28;20116;-71
2022/05/10 11:39:16;;;;;;;6.95;3.92;;;22.20;48.30;20.90;101177.00;;;;5011988;28;20052;-71
2022/05/10 11:42:32;;;;;;;5.22;4.65;;;22.20;48.40;20.90;101173.00;;;;4972866;28;20137;-72
2022/05/10 11:45:42;;;;;;;9.25;3.90;;;22.20;48.40;20.90;101179.00;;;;5035414;28;20069;-72
2022/05/10 11:49:06;;;;;;;6.53;4.00;;;22.20;48.20;20.90;101184.00;;;;5039733;28;20055;-72
2022/05/10 11:52:23;;;;;;;5.15;3.45;;;22.20;48.20;21.00;101176.00;;;;5016608;28;20095;-71
2022/05/10 11:55:41;;;;;;;4.82;3.47;;;22.20;48.20;21.00;101179.00;;;;5031290;28;20406;-71
2022/05/10 11:58:29;;;;;;;6.40;3.60;;;22.30;48.30;21.00;101173.00;;;;5042350;28;20032;-71
2022/05/10 12:01:43;;;;;;;;;;;22.30;48.30;21.00;101171.00;;;;5000480;28;20498;-71
2022/05/10 12:04:43;;;;;;;6.20;3.67;;;22.30;48.40;21.00;101159.00;;;;5037208;28;19978;-71
2022/05/10 12:07:32;;;;;;;4.65;3.53;;;22.30;48.20;21.00;101161.00;;;;5023202;28;20436;-72
2022/05/10 12:10:40;;;;;;;6.20;3.90;;;22.30;48.10;21.00;101159.00;;;;5022933;28;20029;-72
2022/05/10 12:23:04;;;;;;;4.43;3.60;;;22.30;47.90;21.10;101158.00;;;;5015518;28;20044;-72
2022/05/10 12:25:54;;;;;;;4.13;3.70;;;22.40;48.00;21.10;101158.00;;;;5014082;28;20053;-71
2022/05/10 12:28:47;;;;;;;4.78;3.47;;;22.40;48.10;21.10;101151.00;;;;5007939;28;20183;-71
2022/05/10 12:31:33;;;;;;;5.13;3.70;;;22.40;48.10;21.10;101150.00;;;;5023378;28;20041;-71
2022/05/10 12:34:40;;;;;;;5.80;3.42;;;22.40;48.20;21.20;101131.00;;;;5037960;28;20128;-71
2022/05/10 12:37:27;;;;;;;5.85;3.58;;;22.40;48.00;21.20;101141.00;;;;5023915;28;20048;-71
2022/05/10 12:40:13;;;;;;;8.40;3.93;;;22.40;48.00;21.20;101135.00;;;;5038848;28;20037;-71
2022/05/10 12:43:33;;;;;;;5.13;3.22;;;22.50;48.00;21.20;101128.00;;;;5040327;28;20049;-71
2022/05/10 12:47:01;;;;;;;4.85;3.58;;;22.40;47.70;21.20;101126.00;;;;5015011;28;20049;-71
2022/05/10 12:50:25;;;;;;;4.15;3.25;;;22.40;47.60;21.20;101126.00;;;;5018274;28;20049;-71
2022/05/10 12:53:29;;;;;;;4.00;3.60;;;22.50;47.50;21.20;101112.00;;;;5026143;28;20062;-71
2022/05/10 12:56:24;;;;;;;4.25;3.45;;;22.60;47.50;21.20;101123.00;;;;5011729;28;20388;-72
2022/05/10 12:59:24;;;;;;;6.60;4.05;;;22.50;48.00;21.20;101110.00;;;;5020810;28;20621;-72
2022/05/10 13:02:13;;;;;;;4.53;3.40;;;22.50;47.40;21.20;101107.00;;;;5021468;28;20037;-72